EDT,Max TemperatureF,Mean TemperatureF,Min TemperatureF,Max Dew PointF,MeanDew PointF,Min DewpointF,Max Humidity, Mean Humidity, Min Humidity, Max Sea Level PressureIn, Mean Sea Level PressureIn, Min Sea Level PressureIn, Max VisibilityMiles, Mean VisibilityMiles, Min VisibilityMiles, Max Wind SpeedMPH, Mean Wind SpeedMPH, Max Gust SpeedMPH,PrecipitationIn, CloudCover, Events, WindDirDegrees
2011-10-1,55,48,40,53,41,37,100,92,81,30.08,29.90,29.74,10,8,4,21,11,26,0.08,8,Rain,343
2011-10-2,53,48,43,46,43,39,100,85,71,30.18,30.12,30.06,10,8,2,14,7,21,T,8,Rain,28
2011-10-3,56,51,46,54,50,43,100,94,82,30.14,30.10,30.03,10,5,0,23,4,31,0.70,8,Fog-Rain,342
2011-10-4,52,48,43,52,48,41,100,98,93,30.14,30.10,30.01,10,4,0,15,9,20,0.11,8,Fog-Rain,36
2011-10-5,43,38,32,43,34,22,100,80,53,30.06,29.94,29.88,10,8,1,33,16,41,T,6,,343
2011-10-6,42,35,28,23,21,18,72,58,41,30.27,30.16,30.06,10,10,10,28,13,39,0.00,3,,332
2011-10-7,48,36,24,32,24,19,88,61,39,30.38,30.30,30.19,10,10,9,14,6,20,0.00,1,,256
2011-10-8,73,59,44,54,48,34,93,69,46,30.22,30.15,30.08,10,9,8,20,12,26,0.00,0,,265
2011-10-9,79,68,57,54,51,48,75,58,38,30.12,30.06,29.98,10,9,8,20,13,25,0.00,0,,263
2011-10-10,66,55,43,54,38,29,70,51,31,30.16,30.04,29.96,10,10,9,30,17,39,0.00,1,,315
2011-10-11,56,46,36,36,34,32,86,67,47,30.29,30.24,30.16,10,10,10,15,7,18,0.00,0,,339
2011-10-12,57,46,35,41,37,33,89,73,55,30.32,30.24,30.15,10,10,10,15,8,20,0.00,1,,137
2011-10-13,54,48,42,52,46,39,100,91,76,30.14,30.04,29.95,10,6,1,13,8,17,0.21,7,Rain,136
2011-10-14,62,57,51,57,54,51,100,97,82,29.95,29.79,29.39,10,4,0,21,12,29,0.32,8,Fog-Rain,94
2011-10-15,60,52,44,61,53,43,100,93,74,29.41,29.25,29.13,10,6,0,28,13,39,0.63,7,Fog-Rain,164
2011-10-16,49,44,39,45,41,37,100,88,69,29.55,29.46,29.36,10,10,6,22,10,30,0.02,6,Rain,206
2011-10-17,51,45,39,44,39,33,100,86,54,29.57,29.47,29.41,10,8,0,25,8,33,0.07,7,Fog-Rain,217
2011-10-18,50,45,40,41,39,37,97,85,62,29.87,29.67,29.54,10,10,8,18,8,25,0.01,7,Rain,213
2011-10-19,53,46,39,41,39,37,100,77,59,30.12,30.05,29.88,10,9,7,15,6,18,T,1,,81
2011-10-20,50,47,43,48,44,38,100,95,73,30.04,29.74,29.52,10,4,1,21,13,32,0.21,8,Rain,78
2011-10-21,52,47,41,51,45,41,100,93,83,29.79,29.64,29.50,10,9,5,15,7,22,0.03,7,Rain,207
2011-10-22,52,46,40,46,43,40,100,92,74,29.94,29.88,29.81,10,7,1,15,6,18,0.09,7,Rain,222
2011-10-23,48,44,40,41,39,35,97,83,71,30.09,30.02,29.94,10,10,9,12,5,15,0.00,7,,271
2011-10-24,48,43,37,37,34,32,89,76,61,30.10,30.03,29.89,10,9,8,12,5,16,0.00,5,,174
2011-10-25,47,42,36,43,39,34,100,92,81,29.87,29.73,29.65,10,6,0,18,9,28,0.21,7,Fog-Rain,210
2011-10-26,42,35,28,34,29,22,93,76,57,29.75,29.74,29.70,10,10,10,21,12,28,0.00,4,,306
2011-10-27,38,33,27,25,22,20,81,68,57,29.77,29.74,29.70,10,10,10,21,10,26,0.00,2,,304
2011-10-28,38,33,27,24,22,19,79,67,52,30.08,29.90,29.76,10,10,9,28,12,35,T,4,,297
2011-10-29,38,32,26,25,24,21,86,70,59,30.24,30.18,30.08,10,10,9,14,7,17,0.00,2,,354
2011-10-30,36,33,30,28,26,22,93,77,64,30.08,29.97,29.85,10,7,1,28,14,38,T,7,Snow,360
2011-10-31,46,36,26,27,23,21,78,62,40,30.34,30.25,30.09,10,10,10,16,7,23,0.00,1,,267